createdAt,value
2019-06-20T00:02:15.150Z,100.00
2019-06-20T00:04:43.970Z,100.00
2019-06-20T00:07:12.713Z,100.00
2019-06-20T00:09:41.468Z,100.00
2019-06-20T00:12:10.253Z,100.00
2019-06-20T00:14:39.045Z,100.00
2019-06-20T00:17:07.867Z,100.00
2019-06-20T00:19:36.660Z,100.00
2019-06-20T00:22:05.438Z,100.00
2019-06-20T00:24:34.305Z,100.00
2019-06-20T00:27:03.052Z,100.00
2019-06-20T00:29:31.851Z,100.00
2019-06-20T00:32:00.751Z,100.00
2019-06-20T00:34:29.597Z,100.00
2019-06-20T00:36:58.337Z,100.00
2019-06-20T00:39:27.117Z,100.00
2019-06-20T00:41:55.882Z,100.00
2019-06-20T00:44:24.677Z,100.00
2019-06-20T00:46:53.418Z,100.00
2019-06-20T00:49:22.186Z,100.00
2019-06-20T00:51:51.070Z,100.00
2019-06-20T00:54:19.863Z,100.00
2019-06-20T00:56:48.606Z,100.00
2019-06-20T00:59:17.365Z,100.00
2019-06-20T01:01:46.099Z,100.00
2019-06-20T01:04:14.915Z,100.00
2019-06-20T01:06:43.670Z,100.00
2019-06-20T01:09:12.461Z,100.00
2019-06-20T01:11:41.229Z,100.00
2019-06-20T01:14:10.009Z,100.00
2019-06-20T01:16:38.750Z,100.00
2019-06-20T01:19:07.518Z,100.00
2019-06-20T01:21:36.272Z,100.00
2019-06-20T01:24:05.377Z,100.00
2019-06-20T01:26:34.118Z,100.00
2019-06-20T01:29:02.851Z,100.00
2019-06-20T01:31:31.653Z,100.00
2019-06-20T01:34:00.529Z,100.00
2019-06-20T01:36:29.269Z,100.00
2019-06-20T01:38:58.025Z,100.00
2019-06-20T01:41:26.799Z,100.00
2019-06-20T01:43:55.560Z,100.00
2019-06-20T01:46:24.319Z,100.00
2019-06-20T01:48:53.059Z,100.00
2019-06-20T01:51:21.866Z,100.00
2019-06-20T01:53:50.675Z,100.00
2019-06-20T01:56:19.408Z,100.00
2019-06-20T01:58:48.213Z,100.00
2019-06-20T02:01:17.197Z,100.00
2019-06-20T02:03:46.012Z,100.00
2019-06-20T02:06:14.743Z,100.00
2019-06-20T02:08:43.629Z,100.00
2019-06-20T02:11:12.536Z,100.00
2019-06-20T02:13:41.337Z,100.00
2019-06-20T02:16:10.171Z,100.00
2019-06-20T02:18:39.220Z,100.00
2019-06-20T02:21:08.139Z,100.00
2019-06-20T02:23:36.890Z,100.00
2019-06-20T02:26:06.340Z,100.00
2019-06-20T02:28:35.040Z,100.00
2019-06-20T02:31:03.767Z,100.00
2019-06-20T02:33:32.545Z,100.00
2019-06-20T02:36:01.432Z,100.00
2019-06-20T02:38:30.158Z,100.00
2019-06-20T02:40:58.910Z,100.00
2019-06-20T02:43:28.143Z,100.00
2019-06-20T02:45:56.886Z,100.00
2019-06-20T02:48:25.614Z,100.00
2019-06-20T02:50:54.467Z,100.00
2019-06-20T02:53:23.192Z,100.00
2019-06-20T02:55:51.968Z,100.00
2019-06-20T02:58:20.714Z,100.00
2019-06-20T03:00:58.253Z,100.00
2019-06-20T03:03:28.609Z,100.00
2019-06-20T03:05:59.497Z,100.00
2019-06-20T03:08:28.500Z,100.00
2019-06-20T03:10:57.254Z,100.00
2019-06-20T03:13:26.308Z,100.00
2019-06-20T03:15:55.081Z,100.00
2019-06-20T03:18:23.859Z,100.00
2019-06-20T03:20:52.634Z,100.00
2019-06-20T03:23:21.378Z,100.00
2019-06-20T03:25:50.192Z,100.00
2019-06-20T03:28:18.940Z,100.00
2019-06-20T03:30:47.714Z,100.00
2019-06-20T03:33:16.584Z,100.00
2019-06-20T03:35:45.322Z,100.00
2019-06-20T03:38:14.107Z,100.00
2019-06-20T03:40:43.032Z,100.00
2019-06-20T03:43:11.766Z,100.00
2019-06-20T03:45:40.498Z,100.00
2019-06-20T03:48:09.259Z,100.00
2019-06-20T03:50:38.022Z,100.00
2019-06-20T03:53:06.755Z,100.00
2019-06-20T03:55:35.579Z,100.00
2019-06-20T03:58:05.858Z,100.00
2019-06-20T04:00:36.296Z,100.00
2019-06-20T04:03:06.013Z,100.00
2019-06-20T04:05:35.376Z,100.00
2019-06-20T04:08:04.164Z,100.00
2019-06-20T04:10:36.859Z,100.00
2019-06-20T04:13:07.715Z,100.00
2019-06-20T04:15:36.192Z,100.00
2019-06-20T04:18:05.005Z,100.00
2019-06-20T04:20:35.253Z,100.00
2019-06-20T04:23:05.060Z,100.00
2019-06-20T04:25:33.883Z,100.00
2019-06-20T04:28:02.701Z,100.00
2019-06-20T04:30:31.463Z,100.00
2019-06-20T04:33:00.293Z,100.00
2019-06-20T04:35:29.327Z,100.00
2019-06-20T04:37:58.147Z,100.00
2019-06-20T04:40:27.490Z,100.00
2019-06-20T04:42:56.380Z,100.00
2019-06-20T04:45:35.025Z,100.00
2019-06-20T04:47:57.928Z,100.00
2019-06-20T04:50:26.658Z,100.00
2019-06-20T04:52:55.430Z,100.00
2019-06-20T04:55:24.453Z,100.00
2019-06-20T04:57:53.380Z,100.00
2019-06-20T05:00:22.167Z,100.00
2019-06-20T05:02:50.913Z,100.00
2019-06-20T05:05:19.700Z,100.00
2019-06-20T05:07:48.497Z,100.00
2019-06-20T05:10:17.367Z,100.00
2019-06-20T05:12:51.547Z,100.00
2019-06-20T05:15:20.492Z,100.00
2019-06-20T05:17:49.500Z,100.00
2019-06-20T05:20:18.538Z,100.00
2019-06-20T05:22:47.482Z,100.00
2019-06-20T05:25:16.732Z,100.00
2019-06-20T05:27:46.140Z,100.00
2019-06-20T05:30:15.527Z,100.00
2019-06-20T05:32:44.405Z,100.00
2019-06-20T05:35:14.058Z,100.00
2019-06-20T05:37:43.304Z,100.00
2019-06-20T05:40:12.940Z,100.00
2019-06-20T05:42:42.123Z,100.00
2019-06-20T05:45:13.970Z,100.00
2019-06-20T05:47:43.855Z,100.00
2019-06-20T05:50:15.686Z,100.00
2019-06-20T05:52:44.814Z,100.00
2019-06-20T05:55:13.975Z,100.00
2019-06-20T05:57:43.198Z,100.00
2019-06-20T06:00:14.232Z,100.00
2019-06-20T06:02:43.158Z,100.00
2019-06-20T06:05:12.921Z,100.00
2019-06-20T06:07:44.246Z,100.00
2019-06-20T06:10:14.157Z,100.00
2019-06-20T06:12:43.204Z,100.00
2019-06-20T06:15:12.835Z,100.00
2019-06-20T06:17:42.099Z,100.00
2019-06-20T06:20:13.104Z,100.00
2019-06-20T06:22:44.649Z,100.00
2019-06-20T06:25:13.912Z,100.00
2019-06-20T06:27:43.039Z,100.00
2019-06-20T06:30:13.690Z,100.00
2019-06-20T06:32:42.774Z,100.00
2019-06-20T06:35:12.335Z,100.00
2019-06-20T06:37:41.498Z,100.00
2019-06-20T06:40:13.355Z,100.00
2019-06-20T06:42:42.282Z,100.00
2019-06-20T06:45:14.382Z,100.00
2019-06-20T06:47:43.715Z,100.00
2019-06-20T06:50:14.232Z,100.00
2019-06-20T06:52:46.434Z,100.00
2019-06-20T06:55:15.893Z,100.00
2019-06-20T06:57:45.117Z,100.00
2019-06-20T07:00:16.877Z,100.00
2019-06-20T07:02:45.727Z,100.00
2019-06-20T07:05:14.832Z,100.00
2019-06-20T07:07:43.877Z,100.00
2019-06-20T07:10:13.414Z,100.00
2019-06-20T07:12:42.475Z,100.00
2019-06-20T07:15:13.714Z,100.00
2019-06-20T07:17:42.585Z,100.00
2019-06-20T07:20:15.275Z,100.00
2019-06-20T07:22:43.784Z,100.00
2019-06-20T07:25:13.008Z,100.00
2019-06-20T07:27:42.516Z,100.00
2019-06-20T07:30:12.889Z,100.00
2019-06-20T07:32:42.202Z,100.00
2019-06-20T07:35:11.691Z,100.00
2019-06-20T07:37:40.830Z,100.00
2019-06-20T07:40:11.816Z,100.00
2019-06-20T07:42:41.199Z,100.00
2019-06-20T07:45:11.970Z,100.00
2019-06-20T07:47:41.125Z,100.00
2019-06-20T07:50:12.387Z,99.58
2019-06-20T07:52:41.420Z,97.67
2019-06-20T07:55:10.917Z,98.46
2019-06-20T07:57:39.920Z,97.23
2019-06-20T08:00:11.191Z,90.39
2019-06-20T08:02:40.030Z,84.22
2019-06-20T08:05:09.016Z,82.38
2019-06-20T08:07:38.006Z,79.31
2019-06-20T08:10:15.619Z,81.40
2019-06-20T08:12:44.687Z,79.85
2019-06-20T08:15:15.992Z,80.18
2019-06-20T08:17:45.378Z,83.03
2019-06-20T08:20:15.530Z,84.24
2019-06-20T08:22:44.662Z,84.99
2019-06-20T08:25:13.916Z,85.44
2019-06-20T08:27:53.141Z,87.58
2019-06-20T08:30:30.848Z,88.21
2019-06-20T08:33:03.565Z,87.41
2019-06-20T08:35:32.238Z,87.97
2019-06-20T08:38:03.598Z,88.42
2019-06-20T08:40:42.106Z,88.57
2019-06-20T08:43:11.054Z,90.22
2019-06-20T08:45:42.548Z,89.58
2019-06-20T08:48:11.763Z,90.35
2019-06-20T08:50:42.419Z,88.59
2019-06-20T08:53:11.663Z,87.15
2019-06-20T08:55:40.521Z,86.21
2019-06-20T08:58:09.439Z,87.45
2019-06-20T09:00:40.833Z,84.78
2019-06-20T09:03:09.939Z,81.57
2019-06-20T09:05:38.934Z,80.70
2019-06-20T09:08:11.360Z,82.54
2019-06-20T09:10:42.703Z,81.65
2019-06-20T09:13:13.283Z,80.74
2019-06-20T09:15:43.815Z,82.40
2019-06-20T09:18:12.719Z,84.06
2019-06-20T09:20:41.927Z,86.82
2019-06-20T09:23:10.914Z,87.05
2019-06-20T09:25:40.033Z,85.16
2019-06-20T09:28:09.096Z,83.79
2019-06-20T09:30:38.909Z,84.64
2019-06-20T09:33:10.058Z,82.88
2019-06-20T09:35:38.873Z,82.28
2019-06-20T09:38:08.164Z,82.60
2019-06-20T09:40:37.120Z,82.18
2019-06-20T09:43:06.296Z,81.03
2019-06-20T09:45:35.295Z,81.68
2019-06-20T09:48:07.386Z,82.10
2019-06-20T09:50:37.901Z,80.33
2019-06-20T09:53:06.893Z,80.01
2019-06-20T09:55:36.329Z,78.76
2019-06-20T09:58:06.371Z,78.46
2019-06-20T10:00:36.102Z,78.32
2019-06-20T10:03:06.539Z,79.20
2019-06-20T10:05:37.684Z,78.89
2019-06-20T10:08:06.690Z,79.25
2019-06-20T10:10:36.312Z,77.11
2019-06-20T10:13:05.197Z,75.64
2019-06-20T10:15:37.400Z,74.15
2019-06-20T10:18:06.914Z,73.79
2019-06-20T10:20:38.641Z,73.17
2019-06-20T10:23:09.389Z,71.28
2019-06-20T10:25:39.269Z,71.55
2019-06-20T10:28:08.430Z,69.12
2019-06-20T10:30:39.146Z,68.41
2019-06-20T10:33:08.054Z,67.75
2019-06-20T10:35:37.173Z,70.13
2019-06-20T10:38:06.158Z,69.10
2019-06-20T10:40:34.986Z,70.49
2019-06-20T10:43:05.514Z,69.72
2019-06-20T10:45:39.430Z,72.10
2019-06-20T10:48:08.637Z,73.05
2019-06-20T10:50:37.663Z,73.57
2019-06-20T10:53:06.675Z,74.86
2019-06-20T10:55:36.201Z,76.04
2019-06-20T10:58:06.277Z,75.70
2019-06-20T11:00:36.033Z,74.62
2019-06-20T11:03:06.205Z,68.46
2019-06-20T11:05:35.912Z,65.79
2019-06-20T11:08:07.062Z,65.12
2019-06-20T11:10:38.651Z,63.42
2019-06-20T11:13:08.687Z,63.49
2019-06-20T11:15:38.956Z,64.05
2019-06-20T11:18:08.250Z,62.80
2019-06-20T11:20:37.817Z,62.27
2019-06-20T11:23:07.958Z,60.15
2019-06-20T11:25:38.340Z,58.07
2019-06-20T11:28:07.766Z,61.32
2019-06-20T11:30:53.521Z,61.88
2019-06-20T11:33:08.916Z,60.09
2019-06-20T11:35:39.225Z,57.48
2019-06-20T11:38:08.811Z,57.31
2019-06-20T11:40:38.561Z,54.71
2019-06-20T11:43:08.754Z,54.02
2019-06-20T11:45:38.913Z,53.18
2019-06-20T11:48:08.877Z,51.96
2019-06-20T11:50:38.220Z,53.38
2019-06-20T11:53:07.220Z,55.34
2019-06-20T11:55:37.052Z,55.97
2019-06-20T11:58:06.167Z,57.11
2019-06-20T12:00:40.781Z,56.29
2019-06-20T12:03:09.664Z,55.96
2019-06-20T12:05:39.815Z,57.88
2019-06-20T12:08:09.329Z,57.02
2019-06-20T12:10:39.274Z,55.97
2019-06-20T12:13:08.506Z,56.50
2019-06-20T12:15:39.396Z,55.48
2019-06-20T12:18:10.400Z,55.37
2019-06-20T12:20:51.221Z,56.43
2019-06-20T12:23:31.406Z,57.31
2019-06-20T12:26:00.442Z,58.95
2019-06-20T12:28:30.271Z,58.27
2019-06-20T12:31:15.859Z,58.02
2019-06-20T12:33:39.690Z,56.52
2019-06-20T12:36:12.360Z,53.45
2019-06-20T12:38:44.200Z,54.27
2019-06-20T12:41:13.321Z,54.51
2019-06-20T12:43:42.351Z,54.38
2019-06-20T12:46:11.549Z,54.81
2019-06-20T12:48:41.261Z,55.67
2019-06-20T12:51:11.152Z,54.15
2019-06-20T12:53:40.460Z,52.87
2019-06-20T12:56:10.985Z,51.28
2019-06-20T12:58:41.074Z,50.96
2019-06-20T13:01:11.151Z,49.43
2019-06-20T13:03:40.524Z,49.21
2019-06-20T13:06:09.687Z,48.78
2019-06-20T13:08:39.027Z,49.40
2019-06-20T13:11:09.382Z,49.79
2019-06-20T13:13:39.379Z,46.38
2019-06-20T13:16:08.795Z,47.33
2019-06-20T13:18:37.560Z,45.42
2019-06-20T13:21:06.428Z,46.35
2019-06-20T13:23:35.373Z,45.97
2019-06-20T13:26:04.716Z,46.74
2019-06-20T13:28:33.721Z,45.84
2019-06-20T13:31:04.203Z,47.55
2019-06-20T13:33:33.737Z,43.47
2019-06-20T13:36:02.956Z,45.61
2019-06-20T13:38:32.279Z,45.53
2019-06-20T13:41:01.215Z,44.17
2019-06-20T13:43:31.525Z,43.33
2019-06-20T13:46:00.524Z,44.38
2019-06-20T13:48:29.524Z,44.46
2019-06-20T13:51:11.880Z,43.74
2019-06-20T13:53:42.674Z,45.82
2019-06-20T13:56:12.754Z,46.62
2019-06-20T13:58:42.316Z,46.13
2019-06-20T14:01:12.161Z,45.18
2019-06-20T14:03:43.620Z,43.83
2019-06-20T14:06:11.997Z,43.84
2019-06-20T14:08:42.397Z,44.76
2019-06-20T14:11:11.535Z,46.88
2019-06-20T14:13:41.599Z,46.20
2019-06-20T14:16:11.101Z,48.41
2019-06-20T14:18:42.567Z,48.60
2019-06-20T14:21:10.576Z,48.24
2019-06-20T14:23:41.009Z,47.87
2019-06-20T14:26:10.233Z,46.44
2019-06-20T14:28:39.221Z,44.68
2019-06-20T14:31:08.078Z,46.23
2019-06-20T14:33:36.940Z,46.35
2019-06-20T14:36:06.010Z,49.19
2019-06-20T14:38:34.869Z,49.19
2019-06-20T14:41:03.811Z,48.22
2019-06-20T14:43:32.671Z,47.75
2019-06-20T14:46:01.674Z,46.85
2019-06-20T14:48:30.630Z,46.89
2019-06-20T14:50:59.672Z,45.42
2019-06-20T14:53:28.618Z,48.51
2019-06-20T14:55:57.536Z,48.82
2019-06-20T14:58:26.424Z,50.21
2019-06-20T15:00:55.600Z,50.25
2019-06-20T15:03:24.622Z,51.16
2019-06-20T15:05:54.649Z,51.11
2019-06-20T15:08:24.014Z,51.38
2019-06-20T15:10:53.997Z,52.72
2019-06-20T15:13:23.271Z,53.01
2019-06-20T15:15:53.395Z,53.60
2019-06-20T15:18:23.050Z,54.77
2019-06-20T15:20:55.656Z,54.38
2019-06-20T15:23:22.717Z,55.81
2019-06-20T15:25:52.106Z,55.72
2019-06-20T15:28:21.136Z,55.62
2019-06-20T15:30:50.869Z,57.24
2019-06-20T15:33:24.146Z,61.64
2019-06-20T15:35:53.514Z,66.01
2019-06-20T15:38:23.330Z,70.87
2019-06-20T15:40:53.384Z,73.69
2019-06-20T15:43:23.377Z,75.81
2019-06-20T15:45:55.755Z,75.94
2019-06-20T15:48:25.316Z,78.84
2019-06-20T15:50:54.177Z,78.17
2019-06-20T15:53:23.492Z,75.28
2019-06-20T15:55:52.445Z,76.56
2019-06-20T15:58:21.284Z,74.53
2019-06-20T16:00:50.137Z,72.92
2019-06-20T16:03:18.966Z,71.99
2019-06-20T16:05:48.038Z,72.04
2019-06-20T16:08:17.138Z,71.35
2019-06-20T16:10:46.230Z,69.90
2019-06-20T16:13:15.183Z,68.39
2019-06-20T16:15:44.018Z,68.62
2019-06-20T16:18:13.087Z,66.95
2019-06-20T16:20:41.958Z,66.66
2019-06-20T16:23:10.792Z,64.90
2019-06-20T16:25:39.667Z,65.17
2019-06-20T16:28:08.435Z,62.83
2019-06-20T16:30:37.280Z,62.28
2019-06-20T16:33:06.096Z,61.24
2019-06-20T16:35:35.205Z,61.63
2019-06-20T16:38:04.060Z,61.38
2019-06-20T16:40:47.531Z,61.59
2019-06-20T16:43:16.410Z,61.23
2019-06-20T16:45:45.825Z,61.45
2019-06-20T16:48:14.664Z,61.35
2019-06-20T16:50:43.521Z,59.86
2019-06-20T16:53:12.624Z,60.67
2019-06-20T16:55:41.578Z,59.32
2019-06-20T16:58:13.467Z,58.66
2019-06-20T17:00:42.680Z,58.54
2019-06-20T17:03:11.771Z,59.31
2019-06-20T17:05:40.834Z,58.44
2019-06-20T17:08:09.842Z,58.92
2019-06-20T17:10:38.767Z,59.36
2019-06-20T17:13:09.957Z,59.01
2019-06-20T17:15:38.869Z,57.93
2019-06-20T17:18:09.235Z,59.58
2019-06-20T17:20:38.073Z,57.89
2019-06-20T17:23:06.993Z,57.49
2019-06-20T17:25:35.853Z,59.03
2019-06-20T17:28:05.994Z,59.25
2019-06-20T17:30:35.142Z,61.69
2019-06-20T17:33:07.521Z,60.33
2019-06-20T17:35:36.571Z,61.97
2019-06-20T17:38:05.488Z,62.35
2019-06-20T17:40:34.396Z,62.94
2019-06-20T17:43:03.305Z,62.41
2019-06-20T17:45:32.414Z,63.85
2019-06-20T17:48:02.641Z,62.58
2019-06-20T17:50:31.672Z,62.88
2019-06-20T17:53:00.650Z,62.84
2019-06-20T17:55:30.261Z,63.14
2019-06-20T17:57:59.168Z,62.33
2019-06-20T18:00:29.035Z,62.81
2019-06-20T18:02:59.125Z,63.27
2019-06-20T18:05:28.429Z,61.65
2019-06-20T18:07:57.990Z,62.62
2019-06-20T18:10:27.528Z,63.19
2019-06-20T18:12:56.815Z,62.81
2019-06-20T18:15:28.296Z,63.72
2019-06-20T18:17:57.291Z,62.59
2019-06-20T18:20:26.409Z,63.59
2019-06-20T18:22:55.251Z,64.34
2019-06-20T18:25:24.283Z,65.04
2019-06-20T18:27:55.181Z,66.77
2019-06-20T18:30:36.599Z,66.13
2019-06-20T18:33:10.090Z,67.25
2019-06-20T18:35:41.693Z,66.45
2019-06-20T18:38:17.115Z,67.14
2019-06-20T18:40:47.864Z,67.01
2019-06-20T18:43:18.478Z,66.60
2019-06-20T18:45:48.258Z,68.10
2019-06-20T18:48:18.379Z,67.50
2019-06-20T18:51:05.301Z,66.02
2019-06-20T18:53:43.775Z,64.28
2019-06-20T18:56:14.554Z,65.66
2019-06-20T18:58:43.729Z,67.58
2019-06-20T19:01:14.019Z,67.06
2019-06-20T19:03:43.621Z,66.93
2019-06-20T19:06:12.650Z,66.42
2019-06-20T19:08:41.510Z,66.86
2019-06-20T19:11:10.456Z,67.33
2019-06-20T19:13:44.078Z,68.13
2019-06-20T19:16:21.141Z,68.10
2019-06-20T19:18:50.095Z,70.00
2019-06-20T19:21:18.942Z,70.24
2019-06-20T19:23:48.239Z,71.65
2019-06-20T19:26:17.480Z,72.01
2019-06-20T19:28:46.254Z,70.17
2019-06-20T19:31:15.115Z,71.87
2019-06-20T19:33:44.007Z,72.47
2019-06-20T19:36:12.949Z,71.08
2019-06-20T19:38:42.871Z,71.61
2019-06-20T19:41:11.851Z,72.31
2019-06-20T19:43:40.748Z,72.77
2019-06-20T19:46:21.673Z,73.14
2019-06-20T19:48:57.594Z,74.48
2019-06-20T19:51:26.853Z,75.45
2019-06-20T19:53:55.722Z,74.19
2019-06-20T19:56:26.133Z,75.37
2019-06-20T19:58:55.133Z,75.69
2019-06-20T20:01:24.006Z,76.08
2019-06-20T20:03:55.963Z,77.60
2019-06-20T20:06:24.730Z,77.45
2019-06-20T20:08:53.545Z,79.58
2019-06-20T20:11:22.349Z,81.15
2019-06-20T20:13:51.152Z,81.99
2019-06-20T20:16:19.954Z,82.62
2019-06-20T20:18:48.742Z,83.72
2019-06-20T20:21:19.803Z,82.92
2019-06-20T20:23:48.637Z,82.62
2019-06-20T20:26:17.435Z,83.46
2019-06-20T20:28:46.482Z,80.24
2019-06-20T20:31:15.244Z,79.87
2019-06-20T20:33:43.991Z,79.56
2019-06-20T20:36:24.498Z,81.53
2019-06-20T20:38:44.173Z,84.61
2019-06-20T20:41:13.842Z,85.97
2019-06-20T20:43:42.573Z,84.83
2019-06-20T20:46:11.344Z,83.83
2019-06-20T20:48:40.198Z,83.59
2019-06-20T20:51:09.264Z,83.60
2019-06-20T20:53:38.006Z,84.14
2019-06-20T20:56:06.785Z,85.04
2019-06-20T20:58:35.543Z,86.08
2019-06-20T21:01:16.474Z,85.80
2019-06-20T21:03:52.855Z,83.73
2019-06-20T21:06:22.035Z,83.43
2019-06-20T21:08:50.811Z,83.42
2019-06-20T21:11:22.063Z,83.25
2019-06-20T21:13:51.709Z,84.77
2019-06-20T21:16:21.323Z,85.73
2019-06-20T21:18:51.685Z,85.91
2019-06-20T21:21:24.926Z,85.67
2019-06-20T21:23:56.276Z,87.15
2019-06-20T21:26:29.752Z,86.21
2019-06-20T21:28:58.604Z,84.25
2019-06-20T21:31:28.250Z,85.67
2019-06-20T21:33:57.072Z,84.61
2019-06-20T21:36:25.810Z,84.58
2019-06-20T21:38:54.570Z,83.39
2019-06-20T21:41:23.350Z,84.64
2019-06-20T21:43:52.113Z,87.41
2019-06-20T21:46:20.771Z,89.33
2019-06-20T21:48:49.687Z,87.90
2019-06-20T21:51:18.411Z,87.00
2019-06-20T21:53:47.158Z,87.62
2019-06-20T21:56:16.010Z,87.80
2019-06-20T21:58:45.165Z,88.51
2019-06-20T22:01:15.733Z,88.49
2019-06-20T22:03:44.607Z,88.53
2019-06-20T22:06:23.221Z,88.95
2019-06-20T22:08:43.907Z,89.18
2019-06-20T22:11:12.670Z,89.21
2019-06-20T22:13:43.029Z,90.22
2019-06-20T22:16:11.868Z,90.70
2019-06-20T22:18:40.635Z,90.59
2019-06-20T22:21:09.299Z,91.96
2019-06-20T22:23:38.045Z,92.23
2019-06-20T22:26:06.797Z,91.73
2019-06-20T22:28:35.523Z,91.86
2019-06-20T22:31:05.427Z,92.38
2019-06-20T22:33:34.154Z,92.88
2019-06-20T22:36:03.007Z,93.00
2019-06-20T22:38:31.781Z,92.55
2019-06-20T22:41:00.559Z,91.81
2019-06-20T22:43:29.353Z,90.69
2019-06-20T22:45:58.091Z,89.04
2019-06-20T22:48:26.814Z,88.17
2019-06-20T22:50:55.574Z,87.92
2019-06-20T22:53:24.409Z,87.89
2019-06-20T22:55:53.200Z,88.04
2019-06-20T22:58:21.926Z,87.91
2019-06-20T23:00:50.707Z,87.85
2019-06-20T23:03:19.454Z,87.35
2019-06-20T23:05:48.215Z,87.48
2019-06-20T23:08:17.003Z,87.81
2019-06-20T23:10:45.819Z,87.98
2019-06-20T23:13:14.630Z,88.32
2019-06-20T23:15:43.375Z,88.66
2019-06-20T23:18:12.112Z,88.88
2019-06-20T23:20:40.977Z,89.20
2019-06-20T23:23:09.751Z,89.38
2019-06-20T23:25:40.131Z,89.47
2019-06-20T23:28:08.857Z,89.30
2019-06-20T23:30:37.608Z,89.71
2019-06-20T23:33:09.431Z,89.55
2019-06-20T23:35:38.282Z,90.23
2019-06-20T23:38:07.033Z,91.05
2019-06-20T23:40:35.835Z,91.05
2019-06-20T23:43:05.218Z,91.23
2019-06-20T23:45:34.008Z,91.59
2019-06-20T23:48:02.879Z,91.93
2019-06-20T23:50:31.575Z,91.83
2019-06-20T23:53:07.989Z,92.31
2019-06-20T23:55:36.825Z,92.08
2019-06-20T23:58:05.621Z,92.50
